Latest Coastal Weather Observations for Cato Island

IDQ60701

Issued at 4:15 am EST Sunday 31 August 2014 (issued every 10 minutes, with the page automatically refreshed every 10 minutes)

About coastal observations | Map of coastal stations | Coastal observations for QLD | Marine services | Other Formats
Station Details ID: 200601 Name: CATO ISLAND Lat: -23.25 Lon: 155.54 Height: 6.3 m
Data from the previous 72 hours. | See also: Recent months for locations in Queensland
Date/Time
EST
Temp

°C
Wind Pressure Rain
since 9am
mm
Weather Cloud Vis
km
Sea
Height
m
Swell
Dir
 
Speed
knots
Gust
knots
hPa Trend Height
m
Period
s
Dir
31/04:00am 19.9 SSW 6 10 1016.2 - - - - - - - - -
31/03:30am 19.6 SSW 9 11 1016.1 - - - - - - - - -
31/03:00am 19.5 SW 8 10 1016.1 - - - - - - - - -
31/02:30am 19.1 SW 8 11 1016.4 - - - - - - - - -
31/02:00am 19.7 SW 7 10 1016.7 - - - - - - - - -
31/01:30am 19.0 S 2 5 1017.0 - - - - - - - - -
31/01:00am 19.3 SW 4 7 1017.3 - - - - - - - - -
31/12:30am 19.2 SW 7 9 1017.8 - - - - - - - - -
31/12:00am 19.9 SW 9 12 1018.2 - - - - - - - - -
 
Date/Time
EST
Temp

°C
Wind Pressure Rain
since 9am
mm
Weather Cloud Vis
km
Sea
Height
m
Swell
Dir
 
Speed
knots
Gust
knots
hPa Trend Height
m
Period
s
Dir
30/11:30pm 20.1 SW 9 13 1018.3 - - - - - - - - -
30/11:00pm 20.4 S 7 9 1018.5 - - - - - - - - -
30/10:30pm 19.7 SW 8 10 1018.7 - - - - - - - - -
30/10:00pm 20.1 S 7 11 1018.5 - - - - - - - - -
30/09:30pm 20.3 SSE 5 8 1018.6 - - - - - - - - -
30/09:00pm 20.3 S 10 14 1018.5 - - - - - - - - -
30/08:30pm 20.4 S 8 12 1018.5 - - - - - - - - -
30/08:00pm 20.3 SSE 10 15 1018.4 - - - - - - - - -
30/07:30pm 20.5 S 10 14 1018.3 - - - - - - - - -
30/07:00pm 20.6 SSE 10 14 1017.7 - - - - - - - - -
30/06:30pm 20.5 S 12 16 1017.3 - - - - - - - - -
30/06:00pm 20.4 S 12 17 1017.1 - - - - - - - - -
30/05:30pm 20.5 S 12 16 1016.9 - - - - - - - - -
30/05:00pm 20.5 SSE 12 15 1016.7 - - - - - - - - -
30/04:30pm 20.4 S 10 12 1016.6 - - - - - - - - -
30/04:00pm 20.5 S 11 16 1016.5 - - - - - - - - -
30/03:30pm 20.7 S 10 14 1016.4 - - - - - - - - -
30/03:00pm 21.0 SSW 10 13 1016.4 - - - - - - - - -
30/02:30pm 21.2 SSW 10 12 1016.4 - - - - - - - - -
30/02:00pm 21.4 S 8 11 1016.4 - - - - - - - - -
30/01:30pm 21.8 SSW 8 11 1016.7 - - - - - - - - -
30/01:00pm 21.6 SSW 7 11 1017.0 - - - - - - - - -
30/12:30pm 21.1 S 10 14 1017.0 - - - - - - - - -
30/12:00pm 21.0 S 11 14 1017.3 - - - - - - - - -
30/11:30am 21.3 S 11 14 1017.8 - - - - - - - - -
30/11:00am 21.2 SSE 13 15 1018.2 - - - - - - - - -
30/10:30am 21.6 SSE 11 15 1018.6 - - - - - - - - -
30/10:00am 21.6 S 10 15 1019.0 - - - - - - - - -
30/09:30am 21.5 S 10 12 1019.2 - - - - - - - - -
30/09:00am 21.4 S 12 15 1019.3 - - - - - - - - -
30/08:30am 21.5 SSE 11 14 1019.3 - - - - - - - - -
30/08:00am 21.3 SSE 12 16 1019.3 - - - - - - - - -
30/07:30am 20.9 SSE 13 17 1019.2 - - - - - - - - -
30/07:00am 20.6 SSE 15 18 1018.9 - - - - - - - - -
30/06:30am 20.4 SSE 15 19 1018.9 - - - - - - - - -
30/06:00am 20.2 SSE 15 18 1018.5 - - - - - - - - -
30/05:30am 20.2 SSE 15 18 1018.3 - - - - - - - - -
30/05:00am 20.1 SSE 15 21 1018.0 - - - - - - - - -
30/04:30am 20.2 SSE 16 19 1017.8 - - - - - - - - -
30/04:00am 19.9 SE 15 18 1017.7 - - - - - - - - -
30/03:30am 20.0 SSE 14 19 1017.6 - - - - - - - - -
30/03:00am 20.3 SSE 15 18 1017.8 - - - - - - - - -
30/02:30am 20.0 SSE 16 19 1017.8 - - - - - - - - -
30/02:00am 20.2 SSE 16 20 1017.9 - - - - - - - - -
30/01:30am 20.0 SSE 15 18 1018.2 - - - - - - - - -
30/01:00am 20.3 SSE 14 17 1018.6 - - - - - - - - -
30/12:30am 20.5 SSE 16 19 1018.7 - - - - - - - - -
30/12:00am 20.4 SSE 17 19 1018.8 - - - - - - - - -
 
Date/Time
EST
Temp

°C
Wind Pressure Rain
since 9am
mm
Weather Cloud Vis
km
Sea
Height
m
Swell
Dir
 
Speed
knots
Gust
knots
hPa Trend Height
m
Period
s
Dir
29/11:30pm 20.5 SSE 17 21 1018.8 - - - - - - - - -
29/11:00pm 20.5 SSE 17 20 1018.8 - - - - - - - - -
29/10:30pm 20.5 SSE 17 21 1018.7 - - - - - - - - -
29/10:00pm 20.6 SSE 18 22 1018.5 - - - - - - - - -
29/09:30pm 20.8 SSE 17 22 1018.7 - - - - - - - - -
29/09:00pm 20.6 SSE 19 22 1018.6 - - - - - - - - -
29/08:30pm 20.6 SSE 19 24 1018.6 - - - - - - - - -
29/08:00pm 20.7 SSE 19 22 1018.6 - - - - - - - - -
29/07:30pm 20.5 SSE 20 23 1018.4 - - - - - - - - -
29/07:00pm 20.6 SSE 20 24 1018.4 - - - - - - - - -
29/06:30pm 20.9 SSE 19 23 1018.2 - - - - - - - - -
29/06:00pm 20.6 SSE 20 24 1017.8 - - - - - - - - -
29/05:30pm 20.8 SSE 21 24 1017.6 - - - - - - - - -
29/05:00pm 20.7 SSE 19 22 1017.4 - - - - - - - - -
29/04:30pm 20.9 SSE 19 22 1017.1 - - - - - - - - -
29/04:00pm 21.3 SSE 19 21 1016.9 - - - - - - - - -
29/03:30pm 21.1 SSE 20 23 1016.7 - - - - - - - - -
29/03:00pm 21.1 SSE 19 23 1016.9 - - - - - - - - -
29/02:30pm 21.2 SSE 21 24 1016.9 - - - - - - - - -
29/02:00pm 21.3 SSE 20 23 1017.1 - - - - - - - - -
29/01:30pm 21.2 S 21 25 1017.2 - - - - - - - - -
29/01:00pm 21.3 SSE 21 25 1017.4 - - - - - - - - -
29/12:30pm 21.3 SSE 21 24 1017.6 - - - - - - - - -
29/12:00pm 21.6 SSE 20 22 1017.9 - - - - - - - - -
29/11:30am 21.4 SSE 20 23 1018.3 - - - - - - - - -
29/11:00am 21.4 SSE 21 24 1018.8 - - - - - - - - -
29/10:30am 21.2 SSE 21 25 1019.0 - - - - - - - - -
29/10:00am 21.3 SSE 22 25 1019.1 - - - - - - - - -
29/09:30am 21.5 SSE 22 25 1019.1 - - - - - - - - -
29/09:00am 21.2 SSE 21 25 1019.1 - - - - - - - - -
29/08:30am 21.2 SSE 21 25 1019.1 - - - - - - - - -
29/08:00am 20.8 SSE 24 27 1019.0 - - - - - - - - -
29/07:30am 20.9 SSE 24 26 1018.7 - - - - - - - - -
29/07:00am 20.4 SSE 21 29 1018.4 - - - - - - - - -
29/06:43am 20.5 SSE 23 33 1018.0 - - - - - - - - -
29/06:30am 20.6 SSE 23 27 1017.9 - - - - - - - - -
29/06:00am 20.4 SSE 26 31 1017.8 - - - - - - - - -
29/05:30am 20.5 SSE 26 31 1017.3 - - - - - - - - -
29/05:00am 20.8 SSE 25 30 1017.0 - - - - - - - - -
29/04:30am 20.6 SSE 28 33 1016.6 - - - - - - - - -
29/04:00am 20.6 SSE 29 34 1016.3 - - - - - - - - -
29/03:30am 20.5 SSE 29 33 1016.3 - - - - - - - - -
29/03:00am 20.2 SSE 26 32 1016.4 - - - - - - - - -
29/02:49am 19.2 SSE 20 40 1016.6 - - - - - - - - -
29/02:38am 19.4 SSE 31 41 1016.4 - - - - - - - - -
29/02:30am 20.3 SSE 27 32 1016.4 - - - - - - - - -
29/02:19am 19.9 SSE 27 37 1016.4 - - - - - - - - -
29/02:00am 20.5 S 26 30 1016.5 - - - - - - - - -
29/01:30am 20.0 SSE 28 35 1016.2 - - - - - - - - -
29/01:00am 19.9 S 28 32 1016.2 - - - - - - - - -
29/12:30am 21.0 SSE 26 30 1016.3 - - - - - - - - -
29/12:00am 21.0 S 26 30 1016.4 - - - - - - - - -
 
Date/Time
EST
Temp

°C
Wind Pressure Rain
since 9am
mm
Weather Cloud Vis
km
Sea
Height
m
Swell
Dir
 
Speed
knots
Gust
knots
hPa Trend Height
m
Period
s
Dir
28/11:30pm 20.9 SSE 28 33 1016.2 - - - - - - - - -
28/11:00pm 21.1 SSE 26 30 1016.1 - - - - - - - - -
28/10:30pm 21.2 S 25 30 1016.2 - - - - - - - - -
28/10:00pm 21.1 S 24 27 1016.3 - - - - - - - - -
28/09:30pm 20.5 S 21 28 1016.3 - - - - - - - - -
28/09:00pm 21.0 S 23 26 1016.2 - - - - - - - - -
28/08:30pm 21.1 S 22 25 1016.0 - - - - - - - - -
28/08:00pm 21.2 S 20 24 1016.0 - - - - - - - - -
28/07:30pm 21.0 S 19 23 1015.8 - - - - - - - - -
28/07:00pm 21.2 SSW 17 21 1015.4 - - - - - - - - -
28/06:30pm 19.9 SSW 21 25 1015.0 - - - - - - - - -
28/06:00pm 20.5 SW 14 17 1014.8 - - - - - - - - -
28/05:30pm 19.8 WSW 14 16 1014.6 - - - - - - - - -
28/05:00pm 20.1 SW 14 16 1014.5 - - - - - - - - -
28/04:30pm 20.5 WSW 16 21 1014.4 - - - - - - - - -
28/04:00pm 20.7 WSW 15 18 1014.0 - - - - - - - - -
28/03:30pm 21.2 WSW 17 21 1013.9 - - - - - - - - -
28/03:00pm 21.6 W 18 21 1013.8 - - - - - - - - -
28/02:30pm 21.1 WSW 19 23 1013.8 - - - - - - - - -
28/02:00pm 22.5 W 19 24 1013.8 - - - - - - - - -
28/01:30pm 22.4 W 20 24 1013.9 - - - - - - - - -
28/01:00pm 22.5 W 19 23 1013.9 - - - - - - - - -
28/12:30pm 22.2 W 19 24 1014.1 - - - - - - - - -
28/12:00pm 22.8 W 19 23 1014.3 - - - - - - - - -
28/11:30am 22.8 W 18 24 1014.8 - - - - - - - - -
28/11:00am 23.0 W 19 23 1015.0 - - - - - - - - -
28/10:30am 22.6 W 19 23 1015.2 - - - - - - - - -
28/10:00am 22.6 W 18 25 1015.3 - - - - - - - - -
28/09:30am 22.3 W 17 22 1015.2 - - - - - - - - -
28/09:00am 22.1 W 16 20 1015.4 - - - - - - - - -
28/08:30am 21.7 W 14 17 1015.3 - - - - - - - - -
28/08:00am 21.5 W 16 20 1015.2 - - - - - - - - -
28/07:30am 21.0 WSW 17 21 1015.0 - - - - - - - - -
28/07:00am 20.5 WSW 19 23 1014.6 - - - - - - - - -
28/06:30am 20.1 WSW 19 24 1014.4 - - - - - - - - -
28/06:00am 19.8 WSW 18 22 1014.0 - - - - - - - - -
28/05:30am 19.7 SW 17 21 1013.7 - - - - - - - - -
28/05:00am 19.7 SW 18 22 1013.3 - - - - - - - - -
28/04:30am 19.9 SW 19 23 1012.9 - - - - - - - - -

Other Formats:

Comma delimited format used in spreadsheet applications
http://www.bom.gov.au/fwo/IDQ60701/IDQ60701.94394.axf

JavaScript Object Notation format (JSON) in row-major order
http://www.bom.gov.au/fwo/IDQ60701/IDQ60701.94394.json